sensor_id;sensor_type;location;lat;lon;timestamp;temperature;humidity
21318;DHT22;10818;50.830;6.524;2023-02-23T00:03:03;10.70;99.90
21318;DHT22;10818;50.830;6.524;2023-02-23T00:08:03;10.60;99.90
21318;DHT22;10818;50.830;6.524;2023-02-23T00:13:04;10.50;99.90
21318;DHT22;10818;50.830;6.524;2023-02-23T00:18:04;10.50;99.90
21318;DHT22;10818;50.830;6.524;2023-02-23T00:23:05;10.50;99.90
21318;DHT22;10818;50.830;6.524;2023-02-23T00:28:05;10.60;99.90
21318;DHT22;10818;50.830;6.524;2023-02-23T00:33:06;10.70;99.90
21318;DHT22;10818;50.830;6.524;2023-02-23T00:38:07;10.60;99.90
21318;DHT22;10818;50.830;6.524;2023-02-23T00:43:07;10.60;99.90
21318;DHT22;10818;50.830;6.524;2023-02-23T00:48:08;10.60;99.90
21318;DHT22;10818;50.830;6.524;2023-02-23T00:53:09;10.70;99.90
21318;DHT22;10818;50.830;6.524;2023-02-23T00:58:10;10.60;99.90
21318;DHT22;10818;50.830;6.524;2023-02-23T01:03:13;10.50;99.90
21318;DHT22;10818;50.830;6.524;2023-02-23T01:08:13;10.50;99.90
21318;DHT22;10818;50.830;6.524;2023-02-23T01:13:14;10.50;99.90
21318;DHT22;10818;50.830;6.524;2023-02-23T01:18:17;10.50;99.90
21318;DHT22;10818;50.830;6.524;2023-02-23T01:23:18;10.40;99.90
21318;DHT22;10818;50.830;6.524;2023-02-23T01:28:19;10.40;99.90
21318;DHT22;10818;50.830;6.524;2023-02-23T01:33:19;10.40;99.90
21318;DHT22;10818;50.830;6.524;2023-02-23T01:38:19;10.50;99.90
21318;DHT22;10818;50.830;6.524;2023-02-23T01:43:21;10.40;99.90
21318;DHT22;10818;50.830;6.524;2023-02-23T01:48:28;10.40;99.90
21318;DHT22;10818;50.830;6.524;2023-02-23T01:53:31;10.30;99.90
21318;DHT22;10818;50.830;6.524;2023-02-23T01:58:33;10.40;99.90
21318;DHT22;10818;50.830;6.524;2023-02-23T02:03:35;10.30;99.90
21318;DHT22;10818;50.830;6.524;2023-02-23T02:08:37;10.40;99.90
21318;DHT22;10818;50.830;6.524;2023-02-23T02:13:44;10.30;99.90
21318;DHT22;10818;50.830;6.524;2023-02-23T02:18:51;10.20;99.90
21318;DHT22;10818;50.830;6.524;2023-02-23T02:24:09;10.40;99.90
21318;DHT22;10818;50.830;6.524;2023-02-23T02:34:36;10.30;99.90
21318;DHT22;10818;50.830;6.524;2023-02-23T02:55:08;10.20;99.90
21318;DHT22;10818;50.830;6.524;2023-02-23T03:00:16;10.20;99.90
21318;DHT22;10818;50.830;6.524;2023-02-23T03:05:49;10.10;99.90
21318;DHT22;10818;50.830;6.524;2023-02-23T03:11:13;10.10;99.90
21318;DHT22;10818;50.830;6.524;2023-02-23T03:16:42;10.10;99.90
21318;DHT22;10818;50.830;6.524;2023-02-23T03:22:17;10.10;99.90
21318;DHT22;10818;50.830;6.524;2023-02-23T03:27:48;10.10;99.90
21318;DHT22;10818;50.830;6.524;2023-02-23T03:33:10;10.00;99.90
21318;DHT22;10818;50.830;6.524;2023-02-23T03:38:33;9.90;99.90
21318;DHT22;10818;50.830;6.524;2023-02-23T03:43:56;9.80;99.90
21318;DHT22;10818;50.830;6.524;2023-02-23T03:49:16;9.70;99.90
21318;DHT22;10818;50.830;6.524;2023-02-23T03:54:38;9.80;99.90
21318;DHT22;10818;50.830;6.524;2023-02-23T04:00:00;9.90;99.90
21318;DHT22;10818;50.830;6.524;2023-02-23T04:05:20;9.80;99.90
21318;DHT22;10818;50.830;6.524;2023-02-23T04:10:43;9.80;99.90
21318;DHT22;10818;50.830;6.524;2023-02-23T04:16:05;9.70;99.90
21318;DHT22;10818;50.830;6.524;2023-02-23T04:21:06;9.70;99.90
21318;DHT22;10818;50.830;6.524;2023-02-23T04:26:06;9.80;99.90
21318;DHT22;10818;50.830;6.524;2023-02-23T04:31:07;9.80;99.90
21318;DHT22;10818;50.830;6.524;2023-02-23T04:36:07;9.80;99.90
21318;DHT22;10818;50.830;6.524;2023-02-23T04:41:08;9.80;99.90
21318;DHT22;10818;50.830;6.524;2023-02-23T04:46:08;9.70;99.90
21318;DHT22;10818;50.830;6.524;2023-02-23T04:51:09;9.80;99.90
21318;DHT22;10818;50.830;6.524;2023-02-23T04:56:09;9.70;99.90
21318;DHT22;10818;50.830;6.524;2023-02-23T05:01:11;9.80;99.90
21318;DHT22;10818;50.830;6.524;2023-02-23T05:06:11;9.80;99.90
21318;DHT22;10818;50.830;6.524;2023-02-23T05:11:12;9.70;99.90
21318;DHT22;10818;50.830;6.524;2023-02-23T05:16:12;9.80;99.90
21318;DHT22;10818;50.830;6.524;2023-02-23T05:21:13;9.80;99.90
21318;DHT22;10818;50.830;6.524;2023-02-23T05:26:13;9.80;99.90
21318;DHT22;10818;50.830;6.524;2023-02-23T05:31:14;9.80;99.90
21318;DHT22;10818;50.830;6.524;2023-02-23T05:36:15;9.80;99.90
21318;DHT22;10818;50.830;6.524;2023-02-23T05:41:17;9.80;99.90
21318;DHT22;10818;50.830;6.524;2023-02-23T05:46:19;9.80;99.90
21318;DHT22;10818;50.830;6.524;2023-02-23T05:51:20;9.80;99.90
21318;DHT22;10818;50.830;6.524;2023-02-23T05:56:20;9.90;99.90
21318;DHT22;10818;50.830;6.524;2023-02-23T06:01:21;9.80;99.90
21318;DHT22;10818;50.830;6.524;2023-02-23T06:06:22;9.80;99.90
21318;DHT22;10818;50.830;6.524;2023-02-23T06:11:23;9.80;99.90
21318;DHT22;10818;50.830;6.524;2023-02-23T06:16:24;9.70;99.90
21318;DHT22;10818;50.830;6.524;2023-02-23T06:21:24;9.80;99.90
21318;DHT22;10818;50.830;6.524;2023-02-23T06:26:25;9.80;99.90
21318;DHT22;10818;50.830;6.524;2023-02-23T06:31:25;9.90;99.90
21318;DHT22;10818;50.830;6.524;2023-02-23T06:36:26;9.90;99.90
21318;DHT22;10818;50.830;6.524;2023-02-23T06:41:26;9.90;99.90
21318;DHT22;10818;50.830;6.524;2023-02-23T06:46:27;9.90;99.90
21318;DHT22;10818;50.830;6.524;2023-02-23T06:51:27;9.90;99.90
21318;DHT22;10818;50.830;6.524;2023-02-23T06:56:28;10.00;99.90
21318;DHT22;10818;50.830;6.524;2023-02-23T07:01:28;9.90;99.90
21318;DHT22;10818;50.830;6.524;2023-02-23T07:06:29;10.00;99.90
21318;DHT22;10818;50.830;6.524;2023-02-23T07:11:30;9.90;99.90
21318;DHT22;10818;50.830;6.524;2023-02-23T07:16:31;9.90;99.90
21318;DHT22;10818;50.830;6.524;2023-02-23T07:21:32;10.00;99.90
21318;DHT22;10818;50.830;6.524;2023-02-23T07:26:32;10.00;99.90
21318;DHT22;10818;50.830;6.524;2023-02-23T07:31:34;10.00;99.90
21318;DHT22;10818;50.830;6.524;2023-02-23T07:36:34;10.10;99.90
21318;DHT22;10818;50.830;6.524;2023-02-23T07:41:35;10.00;99.90
21318;DHT22;10818;50.830;6.524;2023-02-23T07:46:35;10.10;99.90
21318;DHT22;10818;50.830;6.524;2023-02-23T07:51:37;10.20;99.90
21318;DHT22;10818;50.830;6.524;2023-02-23T07:56:37;10.20;99.90
21318;DHT22;10818;50.830;6.524;2023-02-23T08:01:38;10.20;99.90
21318;DHT22;10818;50.830;6.524;2023-02-23T08:06:38;10.20;99.90
21318;DHT22;10818;50.830;6.524;2023-02-23T08:11:39;10.20;99.90
21318;DHT22;10818;50.830;6.524;2023-02-23T08:16:41;10.30;99.90
21318;DHT22;10818;50.830;6.524;2023-02-23T08:21:42;10.20;99.90
21318;DHT22;10818;50.830;6.524;2023-02-23T08:26:42;10.20;99.90
21318;DHT22;10818;50.830;6.524;2023-02-23T08:31:43;10.20;99.90
21318;DHT22;10818;50.830;6.524;2023-02-23T08:36:43;10.20;99.90
21318;DHT22;10818;50.830;6.524;2023-02-23T08:41:44;10.10;99.90
21318;DHT22;10818;50.830;6.524;2023-02-23T08:46:45;10.10;99.90
21318;DHT22;10818;50.830;6.524;2023-02-23T08:51:45;10.20;99.90
21318;DHT22;10818;50.830;6.524;2023-02-23T08:56:46;10.20;99.90
21318;DHT22;10818;50.830;6.524;2023-02-23T09:01:46;10.30;99.90
21318;DHT22;10818;50.830;6.524;2023-02-23T09:06:47;10.50;99.90
21318;DHT22;10818;50.830;6.524;2023-02-23T09:11:49;10.70;99.90
21318;DHT22;10818;50.830;6.524;2023-02-23T09:16:49;10.80;99.90
21318;DHT22;10818;50.830;6.524;2023-02-23T09:21:50;10.90;99.90
21318;DHT22;10818;50.830;6.524;2023-02-23T09:26:50;10.90;99.90
21318;DHT22;10818;50.830;6.524;2023-02-23T09:31:52;10.90;99.90
21318;DHT22;10818;50.830;6.524;2023-02-23T09:36:56;11.00;99.90
21318;DHT22;10818;50.830;6.524;2023-02-23T09:42:12;11.10;99.90
21318;DHT22;10818;50.830;6.524;2023-02-23T09:52:41;11.00;99.90
21318;DHT22;10818;50.830;6.524;2023-02-23T09:57:44;10.90;99.90
21318;DHT22;10818;50.830;6.524;2023-02-23T10:08:06;10.60;99.90
21318;DHT22;10818;50.830;6.524;2023-02-23T10:13:23;10.70;99.90
21318;DHT22;10818;50.830;6.524;2023-02-23T10:23:40;10.70;99.90
21318;DHT22;10818;50.830;6.524;2023-02-23T10:28:42;10.60;99.90
21318;DHT22;10818;50.830;6.524;2023-02-23T10:33:43;10.60;99.90
21318;DHT22;10818;50.830;6.524;2023-02-23T10:38:44;10.50;99.90
21318;DHT22;10818;50.830;6.524;2023-02-23T10:43:45;10.60;99.90
21318;DHT22;10818;50.830;6.524;2023-02-23T10:48:46;10.60;99.90
21318;DHT22;10818;50.830;6.524;2023-02-23T10:53:47;10.70;99.90
21318;DHT22;10818;50.830;6.524;2023-02-23T10:58:49;10.80;99.90
21318;DHT22;10818;50.830;6.524;2023-02-23T11:03:50;10.90;99.90
21318;DHT22;10818;50.830;6.524;2023-02-23T11:08:51;11.00;99.90
21318;DHT22;10818;50.830;6.524;2023-02-23T11:13:52;11.10;99.90
21318;DHT22;10818;50.830;6.524;2023-02-23T11:23:56;10.90;99.90
21318;DHT22;10818;50.830;6.524;2023-02-23T11:28:59;10.90;99.90
21318;DHT22;10818;50.830;6.524;2023-02-23T11:34:02;10.70;99.90
21318;DHT22;10818;50.830;6.524;2023-02-23T11:39:13;10.50;99.90
21318;DHT22;10818;50.830;6.524;2023-02-23T11:44:18;10.40;99.90
21318;DHT22;10818;50.830;6.524;2023-02-23T11:49:20;10.30;99.90
21318;DHT22;10818;50.830;6.524;2023-02-23T11:54:26;10.30;99.90
21318;DHT22;10818;50.830;6.524;2023-02-23T11:59:37;10.10;99.90
21318;DHT22;10818;50.830;6.524;2023-02-23T12:04:38;10.20;99.90
21318;DHT22;10818;50.830;6.524;2023-02-23T12:09:39;10.30;99.90
21318;DHT22;10818;50.830;6.524;2023-02-23T12:14:58;10.20;99.90
21318;DHT22;10818;50.830;6.524;2023-02-23T12:20:05;10.20;99.90
21318;DHT22;10818;50.830;6.524;2023-02-23T12:25:15;9.90;99.90
21318;DHT22;10818;50.830;6.524;2023-02-23T12:35:29;9.90;99.90
21318;DHT22;10818;50.830;6.524;2023-02-23T12:40:31;10.00;99.90
21318;DHT22;10818;50.830;6.524;2023-02-23T12:50:55;9.80;99.90
21318;DHT22;10818;50.830;6.524;2023-02-23T13:01:03;9.80;99.90
21318;DHT22;10818;50.830;6.524;2023-02-23T13:16:50;9.80;99.90
21318;DHT22;10818;50.830;6.524;2023-02-23T13:22:00;9.80;99.90
21318;DHT22;10818;50.830;6.524;2023-02-23T13:32:15;10.00;99.90
21318;DHT22;10818;50.830;6.524;2023-02-23T13:37:17;10.40;99.90
21318;DHT22;10818;50.830;6.524;2023-02-23T13:47:44;10.70;99.90
21318;DHT22;10818;50.830;6.524;2023-02-23T13:52:46;10.90;99.90
21318;DHT22;10818;50.830;6.524;2023-02-23T13:57:46;11.20;99.90
21318;DHT22;10818;50.830;6.524;2023-02-23T14:02:47;11.40;99.90
21318;DHT22;10818;50.830;6.524;2023-02-23T14:07:50;11.20;99.90
21318;DHT22;10818;50.830;6.524;2023-02-23T14:43:54;11.00;99.90
21318;DHT22;10818;50.830;6.524;2023-02-23T14:49:05;11.40;99.90
21318;DHT22;10818;50.830;6.524;2023-02-23T14:59:22;11.90;99.90
21318;DHT22;10818;50.830;6.524;2023-02-23T15:04:24;11.80;99.90
21318;DHT22;10818;50.830;6.524;2023-02-23T15:09:31;11.40;99.90
21318;DHT22;10818;50.830;6.524;2023-02-23T15:14:32;11.20;99.90
21318;DHT22;10818;50.830;6.524;2023-02-23T15:19:36;11.10;99.90
21318;DHT22;10818;50.830;6.524;2023-02-23T15:24:42;10.80;99.90
21318;DHT22;10818;50.830;6.524;2023-02-23T15:29:43;10.70;99.90
21318;DHT22;10818;50.830;6.524;2023-02-23T15:34:43;10.50;99.90
21318;DHT22;10818;50.830;6.524;2023-02-23T15:44:52;10.30;99.90
21318;DHT22;10818;50.830;6.524;2023-02-23T15:50:14;10.30;99.90
21318;DHT22;10818;50.830;6.524;2023-02-23T16:00:38;10.00;99.90
21318;DHT22;10818;50.830;6.524;2023-02-23T16:05:52;9.90;99.90
21318;DHT22;10818;50.830;6.524;2023-02-23T16:10:54;9.80;99.90
21318;DHT22;10818;50.830;6.524;2023-02-23T16:16:00;9.90;99.90
21318;DHT22;10818;50.830;6.524;2023-02-23T16:21:00;9.90;99.90
21318;DHT22;10818;50.830;6.524;2023-02-23T16:26:09;10.00;99.90
21318;DHT22;10818;50.830;6.524;2023-02-23T16:31:11;9.90;99.90
21318;DHT22;10818;50.830;6.524;2023-02-23T16:36:18;9.80;99.90
21318;DHT22;10818;50.830;6.524;2023-02-23T16:41:19;9.80;99.90
21318;DHT22;10818;50.830;6.524;2023-02-23T16:46:21;9.80;99.90
21318;DHT22;10818;50.830;6.524;2023-02-23T16:51:22;9.80;99.90
21318;DHT22;10818;50.830;6.524;2023-02-23T16:56:23;9.80;99.90
21318;DHT22;10818;50.830;6.524;2023-02-23T17:01:24;9.70;99.90
21318;DHT22;10818;50.830;6.524;2023-02-23T17:06:25;9.70;99.90
21318;DHT22;10818;50.830;6.524;2023-02-23T17:11:25;9.60;99.90
21318;DHT22;10818;50.830;6.524;2023-02-23T17:16:26;9.50;99.90
21318;DHT22;10818;50.830;6.524;2023-02-23T17:21:26;9.60;99.90
21318;DHT22;10818;50.830;6.524;2023-02-23T17:26:27;9.60;99.90
21318;DHT22;10818;50.830;6.524;2023-02-23T17:31:28;9.60;99.90
21318;DHT22;10818;50.830;6.524;2023-02-23T17:36:28;9.50;99.90
21318;DHT22;10818;50.830;6.524;2023-02-23T17:41:29;9.50;99.90
21318;DHT22;10818;50.830;6.524;2023-02-23T17:46:30;9.60;99.90
21318;DHT22;10818;50.830;6.524;2023-02-23T17:51:30;9.50;99.90
21318;DHT22;10818;50.830;6.524;2023-02-23T17:56:31;9.40;99.90
21318;DHT22;10818;50.830;6.524;2023-02-23T18:01:31;9.40;99.90
21318;DHT22;10818;50.830;6.524;2023-02-23T18:06:32;9.40;99.90
21318;DHT22;10818;50.830;6.524;2023-02-23T18:11:33;9.40;99.90
21318;DHT22;10818;50.830;6.524;2023-02-23T18:16:33;9.40;99.90
21318;DHT22;10818;50.830;6.524;2023-02-23T18:21:34;9.50;99.90
21318;DHT22;10818;50.830;6.524;2023-02-23T18:26:39;9.40;99.90
21318;DHT22;10818;50.830;6.524;2023-02-23T18:31:40;9.30;99.90
21318;DHT22;10818;50.830;6.524;2023-02-23T18:36:40;9.30;99.90
21318;DHT22;10818;50.830;6.524;2023-02-23T18:41:41;9.30;99.90
21318;DHT22;10818;50.830;6.524;2023-02-23T18:46:42;9.30;99.90
21318;DHT22;10818;50.830;6.524;2023-02-23T18:51:43;9.20;99.90
21318;DHT22;10818;50.830;6.524;2023-02-23T18:56:44;9.10;99.90
21318;DHT22;10818;50.830;6.524;2023-02-23T19:01:45;9.10;99.90
21318;DHT22;10818;50.830;6.524;2023-02-23T19:06:48;9.10;99.90
21318;DHT22;10818;50.830;6.524;2023-02-23T19:11:48;9.20;99.90
21318;DHT22;10818;50.830;6.524;2023-02-23T19:16:49;9.20;99.90
21318;DHT22;10818;50.830;6.524;2023-02-23T19:21:50;9.20;99.90
21318;DHT22;10818;50.830;6.524;2023-02-23T19:26:50;9.20;99.90
21318;DHT22;10818;50.830;6.524;2023-02-23T19:31:51;9.10;99.90
21318;DHT22;10818;50.830;6.524;2023-02-23T19:36:51;9.10;99.90
21318;DHT22;10818;50.830;6.524;2023-02-23T19:41:52;9.10;99.90
21318;DHT22;10818;50.830;6.524;2023-02-23T19:46:52;9.00;99.90
21318;DHT22;10818;50.830;6.524;2023-02-23T19:51:53;9.00;99.90
21318;DHT22;10818;50.830;6.524;2023-02-23T19:56:53;9.10;99.90
21318;DHT22;10818;50.830;6.524;2023-02-23T20:01:54;9.00;99.90
21318;DHT22;10818;50.830;6.524;2023-02-23T20:06:55;9.10;99.90
21318;DHT22;10818;50.830;6.524;2023-02-23T20:11:55;9.00;99.90
21318;DHT22;10818;50.830;6.524;2023-02-23T20:16:56;8.90;99.90
21318;DHT22;10818;50.830;6.524;2023-02-23T20:21:56;8.90;99.90
21318;DHT22;10818;50.830;6.524;2023-02-23T20:26:56;8.80;99.90
21318;DHT22;10818;50.830;6.524;2023-02-23T20:31:58;8.90;99.90
21318;DHT22;10818;50.830;6.524;2023-02-23T20:36:59;8.80;99.90
21318;DHT22;10818;50.830;6.524;2023-02-23T20:41:59;8.80;99.90
21318;DHT22;10818;50.830;6.524;2023-02-23T20:47:00;8.80;99.90
21318;DHT22;10818;50.830;6.524;2023-02-23T20:52:01;8.80;99.90
21318;DHT22;10818;50.830;6.524;2023-02-23T20:57:02;8.80;99.90
21318;DHT22;10818;50.830;6.524;2023-02-23T21:02:09;8.80;99.90
21318;DHT22;10818;50.830;6.524;2023-02-23T21:07:14;8.70;99.90
21318;DHT22;10818;50.830;6.524;2023-02-23T21:12:15;8.80;99.90
21318;DHT22;10818;50.830;6.524;2023-02-23T21:17:15;9.00;99.90
21318;DHT22;10818;50.830;6.524;2023-02-23T21:22:16;8.90;99.90
21318;DHT22;10818;50.830;6.524;2023-02-23T21:27:16;8.80;99.90
21318;DHT22;10818;50.830;6.524;2023-02-23T21:32:17;8.80;99.90
21318;DHT22;10818;50.830;6.524;2023-02-23T21:37:18;8.70;99.90
21318;DHT22;10818;50.830;6.524;2023-02-23T21:42:19;8.60;99.90
21318;DHT22;10818;50.830;6.524;2023-02-23T21:47:20;8.70;99.90
21318;DHT22;10818;50.830;6.524;2023-02-23T21:52:21;8.60;99.90
21318;DHT22;10818;50.830;6.524;2023-02-23T21:57:22;8.60;99.90
21318;DHT22;10818;50.830;6.524;2023-02-23T22:02:23;8.40;99.90
21318;DHT22;10818;50.830;6.524;2023-02-23T22:07:26;8.50;99.90
21318;DHT22;10818;50.830;6.524;2023-02-23T22:12:28;8.50;99.90
21318;DHT22;10818;50.830;6.524;2023-02-23T22:17:28;8.50;99.90
21318;DHT22;10818;50.830;6.524;2023-02-23T22:22:31;8.50;99.90
21318;DHT22;10818;50.830;6.524;2023-02-23T22:27:35;8.50;99.90
21318;DHT22;10818;50.830;6.524;2023-02-23T22:32:35;8.50;99.90
21318;DHT22;10818;50.830;6.524;2023-02-23T22:37:36;8.50;99.90
21318;DHT22;10818;50.830;6.524;2023-02-23T22:42:37;8.50;99.90
21318;DHT22;10818;50.830;6.524;2023-02-23T22:47:38;8.50;99.90
21318;DHT22;10818;50.830;6.524;2023-02-23T22:52:38;8.50;99.90
21318;DHT22;10818;50.830;6.524;2023-02-23T22:57:39;8.40;99.90
21318;DHT22;10818;50.830;6.524;2023-02-23T23:02:40;8.40;99.90
21318;DHT22;10818;50.830;6.524;2023-02-23T23:07:41;8.50;99.90
21318;DHT22;10818;50.830;6.524;2023-02-23T23:12:42;8.50;99.90
21318;DHT22;10818;50.830;6.524;2023-02-23T23:17:43;8.40;99.90
21318;DHT22;10818;50.830;6.524;2023-02-23T23:22:50;8.30;99.90
21318;DHT22;10818;50.830;6.524;2023-02-23T23:27:51;8.20;99.90
21318;DHT22;10818;50.830;6.524;2023-02-23T23:32:51;8.30;99.90
21318;DHT22;10818;50.830;6.524;2023-02-23T23:37:52;8.30;99.90
21318;DHT22;10818;50.830;6.524;2023-02-23T23:42:52;8.40;99.90
21318;DHT22;10818;50.830;6.524;2023-02-23T23:47:54;8.40;99.90
21318;DHT22;10818;50.830;6.524;2023-02-23T23:52:55;8.30;99.90
21318;DHT22;10818;50.830;6.524;2023-02-23T23:57:56;8.40;99.90
